Time;durP1;ratioP1;P1;durP2;ratioP2;P2;SDS_P1;SDS_P2;PMS_P1;PMS_P2;Temp;Humidity;BMP_temperature;BMP_pressure;BME280_temperature;BME280_humidity;BME280_pressure;Samples;Min_cycle;Max_cycle;Signal;HPM_P1;HPM_P2
2021/11/28 00:00:06;;;;;;;13.30;10.07;;;;;;;3.66;86.60;98617.13;5111507;28;20023;-74
2021/11/28 00:02:34;;;;;;;13.10;9.23;;;;;;;3.64;86.42;98619.75;5111651;28;20040;-74
2021/11/28 00:05:00;;;;;;;11.77;7.72;;;;;;;3.64;86.27;98616.25;5111483;28;20031;-75
2021/11/28 00:12:46;;;;;;;11.20;8.20;;;;;;;3.25;85.45;98623.56;5111265;28;20032;-75
2021/11/28 00:15:15;;;;;;;11.48;8.38;;;;;;;3.11;85.44;98626.22;5111398;28;20478;-73
2021/11/28 00:17:40;;;;;;;10.38;7.57;;;;;;;2.94;85.37;98623.75;5109482;28;20119;-74
2021/11/28 00:20:11;;;;;;;9.32;7.10;;;;;;;2.77;85.57;98622.97;5111228;28;20114;-75
2021/11/28 00:22:38;;;;;;;11.15;8.05;;;;;;;2.57;85.68;98626.56;5110756;28;20464;-75
2021/11/28 00:25:12;;;;;;;12.20;8.02;;;;;;;2.37;86.04;98630.97;5114155;28;20375;-74
2021/11/28 00:27:37;;;;;;;12.55;8.43;;;;;;;2.23;86.23;98645.75;5111692;28;20118;-75
2021/11/28 00:30:10;;;;;;;10.68;7.95;;;;;;;2.07;86.60;98656.22;5115152;28;20130;-74
2021/11/28 00:32:37;;;;;;;11.70;8.00;;;;;;;1.91;87.18;98668.41;5102292;28;20517;-75
2021/11/28 00:35:03;;;;;;;11.50;8.57;;;;;;;1.77;87.17;98664.91;5115068;28;20024;-74
2021/11/28 00:37:29;;;;;;;11.40;8.88;;;;;;;1.65;87.42;98667.50;5114914;28;20104;-75
2021/11/28 00:39:54;;;;;;;10.88;8.52;;;;;;;1.52;87.23;98674.47;5115008;28;20122;-75
2021/11/28 00:42:19;;;;;;;11.45;7.55;;;;;;;1.49;87.80;98677.94;5114892;28;20042;-75
2021/11/28 00:44:45;;;;;;;13.18;8.90;;;;;;;1.56;87.78;98689.19;5114670;28;20039;-75
2021/11/28 00:47:11;;;;;;;12.95;10.40;;;;;;;1.60;89.53;98685.75;5114853;28;20040;-75
2021/11/28 00:49:38;;;;;;;15.30;10.68;;;;;;;1.71;89.55;98699.59;5113509;28;20104;-74
2021/11/28 00:52:05;;;;;;;12.05;9.25;;;;;;;1.81;90.36;98697.00;5113508;28;20020;-74
2021/11/28 00:54:31;;;;;;;15.80;12.07;;;;;;;1.86;89.56;98695.25;5114539;28;20093;-75
2021/11/28 00:56:58;;;;;;;13.98;10.85;;;;;;;1.82;89.57;98694.41;5115726;27;20530;-75
2021/11/28 00:59:26;;;;;;;17.52;11.32;;;;;;;1.77;89.43;98700.47;5116299;27;20118;-75
2021/11/28 01:01:52;;;;;;;13.20;9.73;;;;;;;1.72;89.59;98701.31;5114917;27;20114;-75
2021/11/28 01:04:17;;;;;;;15.70;10.43;;;;;;;1.69;89.57;98690.94;5114494;27;20028;-75
2021/11/28 01:06:44;;;;;;;15.30;11.25;;;;;;;1.67;89.05;98690.06;5125108;27;20031;-75
2021/11/28 01:09:10;;;;;;;13.38;9.57;;;;;;;1.62;89.34;98694.38;5113051;28;20038;-75
2021/11/28 01:11:36;;;;;;;13.40;10.13;;;;;;;1.60;89.42;98693.53;5117776;27;20057;-75
2021/11/28 01:14:02;;;;;;;12.90;9.38;;;;;;;1.56;89.37;98699.59;5120485;27;20063;-75
2021/11/28 01:16:28;;;;;;;13.23;9.63;;;;;;;1.49;89.26;98698.75;5112966;28;20418;-75
2021/11/28 01:18:53;;;;;;;12.15;9.25;;;;;;;1.41;89.00;98707.38;5114082;28;20027;-74
2021/11/28 01:21:19;;;;;;;12.80;10.00;;;;;;;1.35;89.12;98716.03;5114233;28;20032;-75
2021/11/28 01:23:46;;;;;;;14.48;9.20;;;;;;;1.35;88.92;98730.78;5114544;27;20034;-75
2021/11/28 01:26:12;;;;;;;11.98;8.70;;;;;;;1.34;88.54;98726.41;5111941;27;20084;-74
2021/11/28 01:28:38;;;;;;;13.30;8.98;;;;;;;1.38;89.25;98722.97;5113942;28;20036;-74
2021/11/28 01:31:04;;;;;;;13.25;10.20;;;;;;;1.43;89.25;98723.84;5115106;27;20474;-74
2021/11/28 01:33:31;;;;;;;10.85;8.15;;;;;;;1.41;88.86;98721.22;5114564;27;20034;-74
2021/11/28 01:35:56;;;;;;;16.90;11.35;;;;;;;1.35;88.62;98709.97;5114297;28;20110;-74
2021/11/28 01:38:22;;;;;;;14.65;10.02;;;;;;;1.29;88.91;98703.91;5112299;28;20066;-74
2021/11/28 01:40:51;;;;;;;13.45;9.32;;;;;;;1.22;89.07;98712.53;5112635;28;20459;-73
2021/11/28 01:43:18;;;;;;;13.93;9.82;;;;;;;1.12;88.63;98721.19;5112113;28;20031;-74
2021/11/28 01:45:46;;;;;;;14.38;9.98;;;;;;;1.05;88.80;98719.44;5114364;27;20036;-74
2021/11/28 01:48:15;;;;;;;14.23;10.10;;;;;;;0.97;88.80;98722.03;5123624;27;20039;-74
2021/11/28 01:50:44;;;;;;;13.05;10.60;;;;;;;0.87;88.75;98726.31;5115808;27;20481;-74
2021/11/28 01:53:17;;;;;;;14.48;9.88;;;;;;;0.79;88.96;98728.00;5112066;28;20036;-75
2021/11/28 01:55:43;;;;;;;11.43;9.18;;;;;;;0.70;88.98;98735.75;5112156;28;20382;-74
2021/11/28 01:58:13;;;;;;;13.83;10.17;;;;;;;0.60;89.07;98734.84;5112132;28;20031;-74
2021/11/28 02:00:42;;;;;;;14.63;9.93;;;;;;;0.50;89.35;98732.16;5110046;28;20065;-74
2021/11/28 02:03:07;;;;;;;13.77;10.57;;;;;;;0.42;89.53;98727.84;5111610;28;20042;-74
2021/11/28 02:05:35;;;;;;;12.13;8.63;;;;;;;0.42;89.54;98724.38;5111915;28;20125;-74
2021/11/28 02:08:00;;;;;;;13.07;8.87;;;;;;;0.43;89.49;98726.09;5113263;28;20031;-74
2021/11/28 02:10:27;;;;;;;16.73;9.82;;;;;;;0.43;89.73;98721.78;5112709;27;20118;-74
2021/11/28 02:12:52;;;;;;;11.27;8.30;;;;;;;0.37;89.42;98724.34;5111822;28;20115;-75
2021/11/28 02:15:20;;;;;;;12.05;8.15;;;;;;;0.35;89.80;98731.25;5111876;28;20405;-74
2021/11/28 02:17:52;;;;;;;14.67;10.40;;;;;;;0.33;90.03;98722.56;5111851;28;20027;-74
2021/11/28 02:20:21;;;;;;;13.13;9.70;;;;;;;0.35;89.99;98723.47;5111784;28;20036;-74
2021/11/28 02:22:49;;;;;;;15.47;10.77;;;;;;;0.35;89.87;98720.00;5112677;28;20036;-74
2021/11/28 02:25:15;;;;;;;19.03;11.93;;;;;;;0.36;89.88;98717.41;5112987;28;20038;-74
2021/11/28 02:27:40;;;;;;;21.67;13.80;;;;;;;0.37;90.34;98720.88;5111595;28;20450;-74
2021/11/28 02:30:09;;;;;;;19.63;12.37;;;;;;;0.38;89.91;98720.88;5111746;28;20027;-74
2021/11/28 02:32:38;;;;;;;17.03;10.90;;;;;;;0.34;90.00;98716.53;5111299;28;20566;-74
2021/11/28 02:35:03;;;;;;;19.67;12.50;;;;;;;0.29;90.46;98710.47;5111508;28;20027;-74
2021/11/28 02:37:29;;;;;;;18.83;13.10;;;;;;;0.27;90.59;98706.97;5112690;28;20088;-74
2021/11/28 02:39:57;;;;;;;15.03;10.57;;;;;;;0.24;90.71;98696.59;5111406;28;20031;-74
2021/11/28 02:42:24;;;;;;;20.00;12.97;;;;;;;0.12;90.34;98687.00;5111072;28;20062;-74
2021/11/28 02:44:50;;;;;;;20.13;11.95;;;;;;;0.03;90.29;98680.88;5111175;28;20027;-74
2021/11/28 02:47:15;;;;;;;12.67;9.20;;;;;;;-0.06;90.12;98672.16;5110505;28;20046;-74
2021/11/28 02:49:41;;;;;;;13.20;9.43;;;;;;;-0.11;90.88;98673.00;5111315;28;20161;-74
2021/11/28 02:52:10;;;;;;;15.57;9.67;;;;;;;-0.17;90.87;98666.06;5112423;28;20043;-74
2021/11/28 02:54:36;;;;;;;15.30;9.53;;;;;;;-0.20;91.03;98653.06;5108419;28;20508;-73
2021/11/28 02:57:03;;;;;;;15.40;9.70;;;;;;;-0.20;90.88;98660.84;5103721;28;20036;-73
2021/11/28 02:59:29;;;;;;;13.87;9.33;;;;;;;-0.23;91.04;98666.03;5111053;28;20469;-73
2021/11/28 03:01:55;;;;;;;13.60;10.03;;;;;;;-0.27;91.52;98672.03;5110926;28;20104;-73
2021/11/28 03:04:42;;;;;;;15.03;10.17;;;;;;;-0.33;91.61;98659.03;5110710;28;20036;-73
2021/11/28 03:07:07;;;;;;;14.07;9.80;;;;;;;-0.34;92.02;98665.94;5112137;28;20188;-73
2021/11/28 03:09:33;;;;;;;16.43;11.03;;;;;;;-0.34;92.21;98678.03;5111012;28;20038;-73
2021/11/28 03:11:58;;;;;;;14.47;10.47;;;;;;;-0.34;91.89;98672.84;5111168;28;20034;-73
2021/11/28 03:14:24;;;;;;;15.60;11.33;;;;;;;-0.38;91.60;98669.38;5110628;28;20042;-73
2021/11/28 03:16:50;;;;;;;14.97;9.47;;;;;;;-0.42;91.38;98675.38;5112120;28;20036;-73
2021/11/28 03:19:16;;;;;;;18.83;12.13;;;;;;;-0.48;91.73;98681.38;5111980;28;20039;-73
2021/11/28 03:21:42;;;;;;;21.47;13.77;;;;;;;-0.49;91.15;98678.78;5111941;28;20031;-74
2021/11/28 03:24:07;;;;;;;16.63;11.33;;;;;;;-0.53;91.65;98680.47;5110381;28;20036;-74
2021/11/28 03:26:40;;;;;;;15.43;10.90;;;;;;;-0.53;91.21;98685.63;5112039;28;20031;-74
2021/11/28 03:29:14;;;;;;;12.90;9.23;;;;;;;-0.54;91.83;98696.88;5106539;28;20036;-73
2021/11/28 03:31:58;;;;;;;17.77;11.03;;;;;;;-0.54;91.47;98703.78;5111077;28;20192;-74
2021/11/28 03:34:46;;;;;;;13.97;10.37;;;;;;;-0.53;91.26;98705.50;5105577;28;20524;-74
2021/11/28 03:37:22;;;;;;;15.67;9.57;;;;;;;-0.58;91.16;98708.06;5110516;28;20036;-74
2021/11/28 03:39:47;;;;;;;12.73;8.90;;;;;;;-0.63;91.01;98709.72;5110371;28;20144;-74
2021/11/28 03:42:16;;;;;;;14.40;10.03;;;;;;;-0.65;91.10;98714.06;5110228;28;20024;-73
2021/11/28 03:44:47;;;;;;;13.27;9.40;;;;;;;-0.68;90.86;98721.81;5110268;28;20027;-74
2021/11/28 03:47:15;;;;;;;13.87;9.33;;;;;;;-0.74;90.64;98716.53;5110355;28;20502;-74
2021/11/28 03:49:44;;;;;;;15.87;10.07;;;;;;;-0.80;90.91;98719.94;5110280;28;20039;-74
2021/11/28 03:52:09;;;;;;;16.07;11.37;;;;;;;-0.78;91.43;98725.16;5110353;28;20031;-73
2021/11/28 03:54:38;;;;;;;13.27;9.07;;;;;;;-0.82;90.85;98716.47;5109924;28;20044;-74
2021/11/28 03:57:04;;;;;;;14.10;9.37;;;;;;;-0.86;90.73;98722.47;5112045;28;20403;-73
2021/11/28 03:59:30;;;;;;;22.37;13.87;;;;;;;-0.91;90.33;98722.44;5117269;28;20073;-73
2021/11/28 04:01:56;;;;;;;16.47;11.70;;;;;;;-0.84;91.72;98725.06;5118839;28;20035;-73
2021/11/28 04:04:21;;;;;;;20.37;12.13;;;;;;;-0.79;91.86;98726.84;5115422;28;20039;-74
2021/11/28 04:07:16;;;;;;;19.47;12.90;;;;;;;-0.68;92.31;98739.94;5106194;28;20092;-74
2021/11/28 04:09:42;;;;;;;17.03;11.10;;;;;;;-0.62;92.13;98729.63;5114334;28;20027;-74
2021/11/28 04:12:09;;;;;;;14.33;9.27;;;;;;;-0.57;92.56;98735.72;5114353;28;20027;-72
2021/11/28 04:14:37;;;;;;;18.03;11.70;;;;;;;-0.60;92.34;98727.03;5114120;28;20565;-72
2021/11/28 04:17:02;;;;;;;16.90;10.97;;;;;;;-0.65;91.76;98724.41;5114269;28;20058;-72
2021/11/28 04:19:32;;;;;;;18.87;12.03;;;;;;;-0.67;91.66;98728.72;5114046;28;20031;-72
2021/11/28 04:21:57;;;;;;;15.07;10.47;;;;;;;-0.72;92.21;98728.66;5114197;28;20160;-72
2021/11/28 04:24:25;;;;;;;16.10;10.43;;;;;;;-0.75;92.33;98728.63;5113659;28;20039;-72
2021/11/28 04:26:52;;;;;;;18.07;11.33;;;;;;;-0.81;90.99;98726.00;5110147;28;20115;-72
2021/11/28 04:29:18;;;;;;;15.47;10.80;;;;;;;-0.79;91.59;98720.81;5113929;28;20510;-73
2021/11/28 04:31:45;;;;;;;13.93;9.57;;;;;;;-0.83;91.78;98732.00;5113934;28;20027;-72
2021/11/28 04:34:10;;;;;;;14.33;10.10;;;;;;;-0.86;91.29;98726.75;5113546;28;20049;-72
2021/11/28 04:36:37;;;;;;;16.67;11.60;;;;;;;-0.91;91.27;98734.50;5113820;28;20027;-72
2021/11/28 04:39:03;;;;;;;14.80;10.00;;;;;;;-0.97;91.52;98743.09;5113242;28;20440;-72
2021/11/28 04:41:31;;;;;;;15.47;10.17;;;;;;;-1.00;91.13;98750.78;5110820;28;20035;-73
2021/11/28 04:43:58;;;;;;;15.50;10.47;;;;;;;-1.02;91.29;98751.63;5110610;28;20034;-72
2021/11/28 04:46:23;;;;;;;16.03;9.33;;;;;;;-1.02;91.14;98756.81;5113338;28;20118;-73
2021/11/28 04:48:50;;;;;;;13.50;9.50;;;;;;;-0.99;91.45;98747.38;5117481;27;20036;-72
2021/11/28 04:51:35;;;;;;;14.40;10.10;;;;;;;-0.89;91.94;98754.41;5114034;27;20077;-73
2021/11/28 04:54:01;;;;;;;14.90;10.27;;;;;;;-0.79;91.91;98749.28;5113177;28;20039;-72
2021/11/28 04:56:27;;;;;;;14.63;9.43;;;;;;;-0.74;91.78;98750.22;5115765;27;20034;-72
2021/11/28 04:58:54;;;;;;;15.87;10.20;;;;;;;-0.66;91.58;98751.16;5112020;27;20035;-72
2021/11/28 05:01:22;;;;;;;15.97;10.93;;;;;;;-0.57;91.75;98761.63;5111072;27;20059;-72
2021/11/28 05:03:49;;;;;;;16.27;10.77;;;;;;;-0.56;91.49;98750.41;5115359;27;20047;-73
2021/11/28 05:06:44;;;;;;;12.77;7.90;;;;;;;-0.62;90.85;98745.16;5114266;28;20050;-73
2021/11/28 05:09:30;;;;;;;13.23;9.03;;;;;;;-0.71;90.09;98753.72;5110661;28;20042;-73
2021/11/28 05:11:55;;;;;;;12.50;8.17;;;;;;;-0.78;89.80;98748.47;5113213;28;20028;-75
2021/11/28 05:14:22;;;;;;;12.70;7.93;;;;;;;-0.88;89.94;98745.75;5112921;28;20497;-75
2021/11/28 05:16:49;;;;;;;14.07;8.30;;;;;;;-0.95;89.77;98758.63;5113092;28;20031;-75
2021/11/28 05:19:21;;;;;;;13.17;8.67;;;;;;;-1.04;89.65;98754.22;5112958;28;20042;-75
2021/11/28 05:22:11;;;;;;;10.73;7.20;;;;;;;-1.10;90.17;98748.97;5109794;28;20498;-75
2021/11/28 05:24:40;;;;;;;18.37;10.77;;;;;;;-1.07;90.84;98750.69;5112295;28;20036;-75
2021/11/28 05:27:05;;;;;;;16.03;10.50;;;;;;;-1.05;90.62;98749.00;5112705;28;20032;-75
2021/11/28 05:29:32;;;;;;;15.70;8.80;;;;;;;-0.99;90.88;98749.97;5112903;28;20058;-74
2021/11/28 05:31:58;;;;;;;16.00;9.67;;;;;;;-0.97;90.86;98750.84;5114192;28;20491;-75
2021/11/28 05:34:52;;;;;;;12.20;7.57;;;;;;;-1.13;90.80;98756.69;5113613;28;20058;-74
2021/11/28 05:37:40;;;;;;;12.47;8.10;;;;;;;-1.23;90.52;98753.13;5112398;28;20470;-74
2021/11/28 05:40:11;;;;;;;14.77;9.33;;;;;;;-1.29;90.62;98749.59;5112859;28;20164;-73
2021/11/28 05:42:36;;;;;;;14.80;8.83;;;;;;;-1.31;90.40;98747.00;5112186;28;20634;-73
2021/11/28 05:45:03;;;;;;;14.53;9.93;;;;;;;-1.26;91.23;98741.84;5112483;28;20043;-73
2021/11/28 05:47:54;;;;;;;12.90;8.40;;;;;;;-1.31;91.03;98744.41;5111149;28;20040;-72
2021/11/28 05:50:38;;;;;;;14.03;8.90;;;;;;;-1.35;91.04;98743.47;5110704;28;20046;-74
2021/11/28 05:53:06;;;;;;;18.60;14.53;;;;;;;-1.35;92.43;98747.78;5108545;27;20024;-72
2021/11/28 05:55:32;;;;;;;17.33;11.93;;;;;;;-1.33;91.61;98746.97;5108124;27;20026;-72
2021/11/28 05:57:58;;;;;;;13.50;9.43;;;;;;;-1.29;91.86;98758.22;5106619;28;20149;-71
2021/11/28 06:00:24;;;;;;;15.33;10.23;;;;;;;-1.29;91.30;98747.00;5108649;28;20474;-72
2021/11/28 06:02:51;;;;;;;13.77;9.47;;;;;;;-1.32;91.30;98743.50;5111187;28;20042;-72
2021/11/28 06:05:41;;;;;;;15.23;9.60;;;;;;;-1.37;90.95;98737.41;5101693;28;20031;-72
2021/11/28 06:08:18;;;;;;;14.43;9.77;;;;;;;-1.39;91.12;98741.72;5109627;28;20485;-72
2021/11/28 06:10:46;;;;;;;13.87;9.50;;;;;;;-1.46;90.90;98731.25;5093132;28;20036;-72
2021/11/28 06:13:11;;;;;;;15.23;10.20;;;;;;;-1.46;90.62;98734.72;5109417;28;20019;-73
2021/11/28 06:15:39;;;;;;;15.10;10.03;;;;;;;-1.52;90.70;98724.25;5111277;28;20063;-72
2021/11/28 06:18:23;;;;;;;15.00;9.50;;;;;;;-1.57;90.52;98731.13;5109220;28;20581;-72
2021/11/28 06:21:14;;;;;;;16.40;10.17;;;;;;;-1.53;90.69;98735.47;5096101;28;20165;-72
2021/11/28 06:23:45;;;;;;;16.33;10.07;;;;;;;-1.48;91.13;98728.66;5107571;28;20046;-72
2021/11/28 06:26:11;;;;;;;20.07;12.07;;;;;;;-1.44;91.34;98720.09;5106280;28;20040;-72
2021/11/28 06:28:36;;;;;;;12.90;8.97;;;;;;;-1.44;90.89;98729.53;5110329;28;20024;-72
2021/11/28 06:31:02;;;;;;;14.63;9.53;;;;;;;-1.48;90.47;98725.19;5107951;28;20024;-72
2021/11/28 06:34:06;;;;;;;20.73;12.30;;;;;;;-1.59;90.60;98728.50;5058993;28;20171;-72
2021/11/28 06:36:52;;;;;;;15.93;10.53;;;;;;;-1.60;90.61;98731.97;5058345;28;20256;-73
2021/11/28 06:39:39;;;;;;;21.83;12.43;;;;;;;-1.61;89.95;98739.69;5094893;28;20046;-72
2021/11/28 06:42:24;;;;;;;25.03;11.43;;;;;;;-1.60;90.31;98736.22;5107505;28;20040;-72
2021/11/28 06:44:49;;;;;;;18.20;11.40;;;;;;;-1.61;90.67;98732.78;5107976;28;20043;-72
2021/11/28 06:47:15;;;;;;;19.00;11.93;;;;;;;-1.62;90.59;98737.97;5105794;28;20036;-72
2021/11/28 06:49:43;;;;;;;20.33;12.10;;;;;;;-1.69;90.67;98738.72;5109801;28;20541;-73
2021/11/28 06:52:27;;;;;;;14.37;9.40;;;;;;;-1.76;90.07;98740.31;5113474;27;20069;-73
2021/11/28 06:55:13;;;;;;;16.83;10.70;;;;;;;-1.83;90.18;98738.53;5107033;28;20057;-73
2021/11/28 06:57:38;;;;;;;14.20;9.83;;;;;;;-1.83;89.82;98739.38;5104477;28;20027;-73
2021/11/28 07:00:06;;;;;;;14.70;8.77;;;;;;;-1.84;89.78;98736.75;5108604;28;20111;-73
2021/11/28 07:02:32;;;;;;;13.27;8.67;;;;;;;-1.86;89.60;98744.53;5102463;28;20448;-72
2021/11/28 07:05:16;;;;;;;19.17;9.67;;;;;;;-1.84;89.51;98753.16;5102559;27;20062;-72
2021/11/28 07:07:47;;;;;;;18.57;11.13;;;;;;;-1.82;90.08;98750.59;5100605;27;20034;-73
2021/11/28 07:10:13;;;;;;;14.53;9.33;;;;;;;-1.82;90.14;98753.19;5105057;27;20413;-73
2021/11/28 07:12:39;;;;;;;16.40;9.77;;;;;;;-1.83;89.54;98754.91;5107866;28;20022;-72
2021/11/28 07:15:13;;;;;;;13.13;8.57;;;;;;;-1.81;89.94;98758.38;5104145;28;20031;-73
2021/11/28 07:17:39;;;;;;;16.70;10.53;;;;;;;-1.91;88.47;98766.84;5103428;28;20054;-74
2021/11/28 07:20:08;;;;;;;14.37;8.97;;;;;;;-1.92;88.67;98765.09;5107943;28;20019;-76
2021/11/28 07:22:45;;;;;;;20.27;11.67;;;;;;;-1.86;89.63;98764.31;5103034;28;20084;-74
2021/11/28 07:25:11;;;;;;;24.50;13.13;;;;;;;-1.79;89.47;98769.59;5102243;28;20028;-74
2021/11/28 07:27:39;;;;;;;18.57;11.97;;;;;;;-1.71;89.52;98777.47;5103816;28;20035;-75
2021/11/28 07:30:06;;;;;;;23.63;13.80;;;;;;;-1.68;89.57;98784.41;5109453;28;20100;-74
2021/11/28 07:32:35;;;;;;;25.40;13.63;;;;;;;-1.61;89.99;98781.06;5109432;28;20031;-73
2021/11/28 07:35:21;;;;;;;23.80;13.40;;;;;;;-1.50;90.12;98788.97;5091464;28;20039;-73
2021/11/28 07:37:49;;;;;;;28.73;15.33;;;;;;;-1.33;89.98;98793.53;5112388;28;20505;-73
2021/11/28 07:40:15;;;;;;;24.27;14.40;;;;;;;-1.13;90.13;98787.75;5109727;28;20039;-74
2021/11/28 07:42:48;;;;;;;30.83;16.90;;;;;;;-0.91;89.78;98789.75;5109357;28;20115;-74
2021/11/28 07:45:47;;;;;;;23.07;12.30;;;;;;;-0.71;90.04;98792.59;5107858;28;20489;-74
2021/11/28 07:48:36;;;;;;;20.20;12.17;;;;;;;-0.54;89.34;98797.94;5106460;28;20043;-73
2021/11/28 07:51:16;;;;;;;20.33;12.47;;;;;;;-0.47;88.66;98789.38;5109594;28;20040;-74
2021/11/28 07:53:45;;;;;;;24.17;12.77;;;;;;;-0.35;88.93;98782.56;5108699;28;20028;-75
2021/11/28 07:56:10;;;;;;;19.10;12.13;;;;;;;-0.28;88.56;98787.81;5108824;28;20031;-74
2021/11/28 07:58:55;;;;;;;20.83;11.83;;;;;;;-0.20;88.27;98787.03;5109823;28;20053;-73
2021/11/28 08:01:24;;;;;;;18.87;11.47;;;;;;;-0.14;88.03;98793.13;5108137;28;20032;-73
2021/11/28 08:04:04;;;;;;;20.57;12.73;;;;;;;-0.10;88.32;98789.72;5106088;28;20577;-73
2021/11/28 08:06:48;;;;;;;18.47;11.73;;;;;;;-0.03;87.79;98786.34;5107748;28;20042;-74
2021/11/28 08:09:34;;;;;;;20.17;12.53;;;;;;;-0.08;87.30;98782.84;5068466;28;20039;-73
2021/11/28 08:12:10;;;;;;;19.00;12.40;;;;;;;-0.08;87.50;98789.72;5110890;28;20080;-73
2021/11/28 08:14:36;;;;;;;19.27;12.60;;;;;;;-0.13;87.71;98778.44;5111807;28;20459;-74
2021/11/28 08:17:01;;;;;;;18.37;12.23;;;;;;;-0.17;88.17;98785.34;5111495;28;20028;-74
2021/11/28 08:19:27;;;;;;;15.43;10.70;;;;;;;-0.14;87.59;98782.75;5111302;28;20140;-74
2021/11/28 08:21:53;;;;;;;18.53;11.83;;;;;;;-0.05;87.78;98782.84;5111413;28;20501;-73
2021/11/28 08:24:18;;;;;;;17.87;10.70;;;;;;;0.01;87.52;98787.22;5110940;28;20040;-73
2021/11/28 08:26:43;;;;;;;19.40;12.40;;;;;;;0.08;87.26;98794.19;5111437;28;20104;-74
2021/11/28 08:29:09;;;;;;;20.37;13.33;;;;;;;0.15;87.23;98795.09;5111209;28;20043;-73
2021/11/28 08:31:38;;;;;;;25.23;15.30;;;;;;;0.24;87.40;98792.59;5110063;28;20043;-73
2021/11/28 08:34:22;;;;;;;23.67;13.20;;;;;;;0.28;86.51;98796.06;5110991;28;20075;-74
2021/11/28 08:37:11;;;;;;;21.03;13.47;;;;;;;0.32;87.00;98798.69;5110467;28;20054;-74
2021/11/28 08:39:37;;;;;;;19.73;13.77;;;;;;;0.39;86.90;98797.00;5113614;27;20023;-74
2021/11/28 08:42:04;;;;;;;24.93;15.30;;;;;;;0.41;86.66;98800.47;5110646;28;20047;-74
2021/11/28 08:44:29;;;;;;;21.70;13.97;;;;;;;0.47;87.05;98797.06;5118305;27;20031;-74
2021/11/28 08:46:55;;;;;;;18.37;12.63;;;;;;;0.50;86.68;98802.25;5116840;27;20096;-74
2021/11/28 08:49:21;;;;;;;19.87;12.73;;;;;;;0.55;86.50;98804.06;5116843;27;20035;-73
2021/11/28 08:51:46;;;;;;;19.03;12.67;;;;;;;0.61;86.51;98806.66;5113718;28;20038;-74
2021/11/28 08:54:13;;;;;;;17.20;12.07;;;;;;;0.67;86.73;98813.63;5114535;28;20038;-74
2021/11/28 08:56:41;;;;;;;18.83;11.93;;;;;;;0.75;85.98;98808.47;5114833;28;20071;-73
2021/11/28 08:59:07;;;;;;;19.23;12.93;;;;;;;0.82;86.42;98816.31;5114688;28;20039;-73
2021/11/28 09:01:33;;;;;;;20.50;12.80;;;;;;;0.90;86.44;98818.09;5114572;28;20035;-74
2021/11/28 09:03:58;;;;;;;19.48;13.10;;;;;;;0.97;85.90;98815.53;5114717;28;20035;-74
2021/11/28 09:06:23;;;;;;;17.30;11.35;;;;;;;1.04;85.86;98821.59;5114707;28;20031;-74
2021/11/28 09:08:49;;;;;;;22.25;13.15;;;;;;;1.06;85.68;98830.28;5113617;28;20069;-74
2021/11/28 09:11:15;;;;;;;18.95;12.95;;;;;;;1.07;85.52;98827.72;5114299;28;20235;-74
2021/11/28 09:13:40;;;;;;;26.75;18.25;;;;;;;1.16;86.24;98833.81;5107362;28;20036;-74
2021/11/28 09:16:10;;;;;;;18.92;12.77;;;;;;;1.25;85.48;98832.09;5110332;28;20413;-76
2021/11/28 09:18:40;;;;;;;20.00;13.20;;;;;;;1.33;85.61;98829.53;5098574;27;20077;-72
2021/11/28 09:21:06;;;;;;;20.02;14.75;;;;;;;1.42;85.16;98823.50;5111701;28;20067;-73
2021/11/28 09:26:16;;;;;;;20.38;12.88;;;;;;;1.58;85.33;98814.03;5110474;28;20537;-74
2021/11/28 09:28:41;;;;;;;17.13;13.05;;;;;;;1.65;85.39;98815.75;5112680;28;20110;-73
2021/11/28 09:31:10;;;;;;;16.38;10.73;;;;;;;1.75;85.49;98805.34;5107946;28;20432;-74
2021/11/28 09:33:39;;;;;;;14.65;10.10;;;;;;;1.85;84.95;98805.38;5108957;28;20040;-73
2021/11/28 09:36:06;;;;;;;13.23;9.40;;;;;;;1.94;84.99;98802.81;5110764;28;20027;-74
2021/11/28 09:38:31;;;;;;;11.25;8.43;;;;;;;1.98;84.71;98799.31;5110424;28;20031;-74
2021/11/28 09:41:02;;;;;;;17.02;10.98;;;;;;;2.04;84.39;98794.13;5109204;28;20094;-74
2021/11/28 09:43:27;;;;;;;13.05;9.32;;;;;;;2.08;84.49;98797.59;5111880;28;20035;-75
2021/11/28 09:45:55;;;;;;;13.00;8.85;;;;;;;2.12;84.50;98800.22;5113668;28;20076;-74
2021/11/28 09:48:23;;;;;;;15.48;9.48;;;;;;;2.16;83.90;98795.88;5100600;28;20123;-74
2021/11/28 09:50:49;;;;;;;13.32;10.20;;;;;;;2.21;84.29;98795.88;5110505;27;20036;-75
2021/11/28 09:53:17;;;;;;;14.00;8.80;;;;;;;2.21;83.75;98791.53;5107372;28;20032;-75
2021/11/28 09:55:43;;;;;;;12.98;9.05;;;;;;;2.26;83.83;98786.31;5108092;27;20031;-75
2021/11/28 09:58:09;;;;;;;11.35;8.82;;;;;;;2.29;83.58;98791.53;5112724;27;20035;-73
2021/11/28 10:00:35;;;;;;;11.38;8.13;;;;;;;2.37;83.80;98787.16;5108614;27;20085;-74
2021/11/28 10:03:01;;;;;;;14.15;9.57;;;;;;;2.41;83.35;98787.19;5110122;27;20059;-75
2021/11/28 10:05:26;;;;;;;11.32;7.85;;;;;;;2.46;83.40;98771.53;5104960;28;20506;-75
2021/11/28 10:07:52;;;;;;;12.68;8.98;;;;;;;2.54;83.40;98771.50;5104329;27;20147;-75
2021/11/28 10:10:19;;;;;;;10.40;7.20;;;;;;;2.62;82.90;98773.25;5105280;27;20028;-74
2021/11/28 10:12:50;;;;;;;14.73;9.50;;;;;;;2.60;82.17;98761.97;5106694;27;20027;-74
2021/11/28 10:15:25;;;;;;;11.05;8.25;;;;;;;2.51;82.90;98767.16;5105270;27;20089;-75
2021/11/28 10:17:50;;;;;;;10.48;7.40;;;;;;;2.45;83.90;98768.94;5108472;28;20051;-76
2021/11/28 10:20:19;;;;;;;13.88;8.23;;;;;;;2.44;83.58;98764.59;5108045;28;20132;-75
2021/11/28 10:22:46;;;;;;;12.63;9.63;;;;;;;2.45;83.80;98759.38;5106261;27;20039;-76
2021/11/28 10:25:16;;;;;;;20.83;15.52;;;;;;;2.54;84.17;98763.69;5102678;27;20036;-76
2021/11/28 10:27:46;;;;;;;16.05;12.35;;;;;;;2.58;83.23;98755.03;5102782;27;20036;-75
2021/11/28 10:30:34;;;;;;;13.18;10.68;;;;;;;2.64;83.39;98750.66;5123398;27;20122;-76
2021/11/28 10:33:12;;;;;;;15.27;10.60;;;;;;;2.68;83.11;98751.53;5116284;27;20059;-75
2021/11/28 10:35:58;;;;;;;13.85;10.07;;;;;;;2.66;82.90;98755.00;5107872;27;20027;-75
2021/11/28 10:38:32;;;;;;;18.77;13.93;;;;;;;2.73;83.69;98754.13;5109096;28;20019;-76
2021/11/28 10:40:57;;;;;;;17.15;13.15;;;;;;;2.84;83.72;98747.13;5110635;27;20105;-73
2021/11/28 10:43:22;;;;;;;19.92;13.45;;;;;;;2.91;82.91;98754.06;5107088;28;20073;-75
2021/11/28 10:45:51;;;;;;;16.52;12.25;;;;;;;2.99;82.65;98752.28;5110200;27;20043;-75
2021/11/28 10:48:25;;;;;;;18.10;13.65;;;;;;;3.03;81.93;98753.13;5104431;28;20084;-73
2021/11/28 10:50:52;;;;;;;16.58;12.52;;;;;;;2.98;81.87;98755.75;5111256;27;20042;-74
2021/11/28 10:53:21;;;;;;;16.25;11.55;;;;;;;3.06;82.47;98763.53;5109081;27;20095;-75
2021/11/28 10:56:06;;;;;;;16.73;11.95;;;;;;;3.24;82.38;98770.41;5111977;28;20031;-76
2021/11/28 10:58:32;;;;;;;14.10;10.65;;;;;;;3.35;81.81;98771.22;5106989;27;20040;-75
2021/11/28 11:01:00;;;;;;;14.95;11.00;;;;;;;3.35;81.30;98763.38;5108200;27;20038;-74
2021/11/28 11:03:30;;;;;;;18.02;10.05;;;;;;;3.31;81.47;98759.09;5108119;27;20127;-75
2021/11/28 11:06:17;;;;;;;12.93;9.73;;;;;;;3.45;81.18;98754.63;5107951;28;20043;-76
2021/11/28 11:08:43;;;;;;;14.68;9.98;;;;;;;3.57;80.63;98758.06;5109737;28;20042;-75
2021/11/28 11:11:13;;;;;;;13.65;10.30;;;;;;;3.70;80.61;98759.72;5110356;28;20120;-78
2021/11/28 11:14:02;;;;;;;13.65;10.57;;;;;;;3.81;80.12;98760.50;5111252;28;20039;-75
2021/11/28 11:16:34;;;;;;;13.23;10.20;;;;;;;3.92;80.36;98761.28;5115927;27;20042;-75
2021/11/28 11:19:18;;;;;;;;;;;;;;;3.95;79.47;98758.63;5114014;27;20031;-75
2021/11/28 11:22:26;;;;;;;13.10;8.77;;;;;;;3.91;79.08;98762.16;5106265;28;19950;-75
2021/11/28 11:24:56;;;;;;;11.50;8.80;;;;;;;3.89;79.35;98763.91;5028080;28;20570;-74
2021/11/28 11:27:30;;;;;;;13.38;8.20;;;;;;;3.91;79.57;98761.31;5102806;27;20099;-76
2021/11/28 11:30:00;;;;;;;13.00;8.93;;;;;;;3.92;79.18;98766.50;5098650;28;20119;-74
2021/11/28 11:32:39;;;;;;;11.80;8.45;;;;;;;3.98;79.17;98762.97;5110328;28;20412;-75
2021/11/28 11:35:08;;;;;;;11.15;8.45;;;;;;;4.06;78.66;98757.69;5108999;28;20096;-75
2021/11/28 11:37:35;;;;;;;11.20;8.68;;;;;;;4.13;78.69;98756.75;5107571;28;20023;-75
2021/11/28 11:40:03;;;;;;;11.55;8.00;;;;;;;4.16;78.06;98748.91;5111287;28;20036;-75
2021/11/28 11:42:29;;;;;;;12.68;8.07;;;;;;;4.00;78.56;98756.00;5107515;28;20039;-74
2021/11/28 11:44:56;;;;;;;12.05;8.25;;;;;;;4.04;78.64;98742.06;5107665;28;20047;-74